Terminal Aerodrome Forecast
Issued by NWS

Home | Current Version | Previous Version | Text Only | Print | Product List | Glossary On
Versions: 1 2 3 4 5 6 7 8 9 10 11 12 13 14 15 16 17 18
706
FTUS42 TJSJ 042330
TAFISX
TAF
TISX 042330Z 0500/0524 10008KT P6SM FEW023 SCT070
     FM051300 12013KT P6SM SCT025
     FM052230 08005KT P6SM FEW025=

USA.gov is the U.S. government's official web portal to all federal, state and local government web resources and services.